createdAt,value
2023-01-19T00:00:17.197Z,15.763962
2023-01-19T00:05:15.766Z,17.969049
2023-01-19T00:10:15.630Z,19.070305
2023-01-19T00:15:16.646Z,16.041704
2023-01-19T00:20:15.638Z,11.522695
2023-01-19T00:25:15.722Z,11.595308
2023-01-19T00:30:15.919Z,12.225746
2023-01-19T00:35:16.086Z,7.375670
2023-01-19T00:40:15.566Z,4.107244
2023-01-19T00:45:15.959Z,0.860254
2023-01-19T00:50:15.611Z,0.112687
2023-01-19T00:55:15.857Z,0.015566
2023-01-19T01:00:15.779Z,0.002214
2023-01-19T01:05:15.665Z,0.000000
2023-01-19T01:10:16.202Z,0.000000
2023-01-19T01:15:15.773Z,0.000000
2023-01-19T01:20:16.034Z,0.000000
2023-01-19T01:25:16.361Z,0.000000
2023-01-19T01:30:15.724Z,0.000000
2023-01-19T01:35:16.122Z,0.000000
2023-01-19T01:40:15.498Z,0.000000
2023-01-19T01:45:16.490Z,0.000000
2023-01-19T01:50:16.067Z,0.000000
2023-01-19T01:55:15.640Z,0.000000
2023-01-19T02:00:17.245Z,0.000000
2023-01-19T02:05:16.230Z,0.000000
2023-01-19T02:10:17.180Z,0.000000
2023-01-19T02:15:15.675Z,0.000000
2023-01-19T02:20:15.660Z,0.000000
2023-01-19T02:25:15.673Z,0.000000
2023-01-19T02:30:16.402Z,0.000000
2023-01-19T02:35:15.545Z,0.000000
2023-01-19T02:40:16.521Z,0.000000
2023-01-19T02:45:16.637Z,0.000000
2023-01-19T02:50:15.861Z,0.000000
2023-01-19T02:55:16.795Z,0.000000
2023-01-19T03:00:16.349Z,0.000000
2023-01-19T03:05:15.973Z,0.000000
2023-01-19T03:10:16.567Z,0.000000
2023-01-19T03:15:16.881Z,0.000000
2023-01-19T03:20:16.071Z,0.000000
2023-01-19T03:25:16.366Z,0.000000
2023-01-19T03:30:16.460Z,0.000000
2023-01-19T03:35:15.857Z,0.000000
2023-01-19T03:40:16.694Z,0.000000
2023-01-19T03:45:15.897Z,0.000000
2023-01-19T03:50:16.296Z,0.000000
2023-01-19T03:55:15.767Z,0.000000
2023-01-19T04:00:16.758Z,0.000000
2023-01-19T04:05:16.190Z,0.000000
2023-01-19T04:10:16.799Z,0.000000
2023-01-19T04:15:15.946Z,0.000000
2023-01-19T04:20:16.973Z,0.000000
2023-01-19T04:25:15.878Z,0.000000
2023-01-19T04:30:16.365Z,0.000000
2023-01-19T04:35:16.514Z,0.000000
2023-01-19T04:40:16.148Z,0.000000
2023-01-19T04:45:15.696Z,0.000000
2023-01-19T04:50:16.230Z,0.000000
2023-01-19T04:55:15.839Z,0.000000
2023-01-19T05:00:15.817Z,0.000000
2023-01-19T05:05:15.805Z,0.000000
2023-01-19T05:10:15.722Z,0.000000
2023-01-19T05:15:16.177Z,0.000000
2023-01-19T05:20:16.580Z,0.000000
2023-01-19T05:25:16.093Z,0.000000
2023-01-19T05:30:16.695Z,0.000000
2023-01-19T05:35:20.057Z,0.000000
2023-01-19T05:40:16.597Z,0.000000
2023-01-19T05:45:15.804Z,0.000000
2023-01-19T05:50:15.734Z,0.000000
2023-01-19T05:55:16.188Z,0.000000
2023-01-19T06:00:15.651Z,0.000000
2023-01-19T06:05:16.280Z,0.000000
2023-01-19T06:10:15.686Z,0.000000
2023-01-19T06:15:16.262Z,0.000000
2023-01-19T06:20:16.909Z,0.000000
2023-01-19T06:25:16.721Z,0.000000
2023-01-19T06:30:16.127Z,0.000000
2023-01-19T06:35:16.376Z,0.000000
2023-01-19T06:40:17.070Z,0.000000
2023-01-19T06:45:17.736Z,0.000000
2023-01-19T06:50:16.952Z,0.000000
2023-01-19T06:55:15.890Z,0.000000
2023-01-19T07:00:16.249Z,0.000000
2023-01-19T07:05:15.905Z,0.000000
2023-01-19T07:10:15.828Z,0.000000
2023-01-19T07:15:15.625Z,0.000000
2023-01-19T07:20:16.159Z,0.000000
2023-01-19T07:25:16.808Z,0.000000
2023-01-19T07:30:15.879Z,0.000000
2023-01-19T07:35:15.769Z,0.000000
2023-01-19T07:40:16.074Z,0.000000
2023-01-19T07:45:15.782Z,0.000000
2023-01-19T07:50:16.246Z,0.000000
2023-01-19T07:55:15.650Z,0.000000
2023-01-19T08:00:15.696Z,0.000000
2023-01-19T08:05:15.617Z,0.000000
2023-01-19T08:10:15.736Z,0.000000
2023-01-19T08:15:15.707Z,0.000000
2023-01-19T08:20:15.837Z,0.000000
2023-01-19T08:25:15.717Z,0.000000
2023-01-19T08:30:15.729Z,0.000000
2023-01-19T08:35:15.817Z,0.000000
2023-01-19T08:40:15.808Z,0.000000
2023-01-19T08:45:15.535Z,0.000000
2023-01-19T08:50:15.853Z,0.000000
2023-01-19T08:55:15.850Z,0.000000
2023-01-19T09:00:16.080Z,0.000000
2023-01-19T09:05:16.319Z,0.000000
2023-01-19T09:10:15.940Z,0.000000
2023-01-19T09:15:15.528Z,0.000000
2023-01-19T09:20:15.775Z,0.000000
2023-01-19T09:25:16.119Z,0.000000
2023-01-19T09:30:15.628Z,0.000000
2023-01-19T09:35:16.137Z,0.000000
2023-01-19T09:40:15.738Z,0.000000
2023-01-19T09:45:15.728Z,0.000000
2023-01-19T09:50:15.598Z,0.000000
2023-01-19T09:55:15.565Z,0.000000
2023-01-19T10:00:16.910Z,0.000000
2023-01-19T10:05:15.686Z,0.000000
2023-01-19T10:10:16.256Z,0.000000
2023-01-19T10:15:15.994Z,0.002276
2023-01-19T10:20:15.987Z,0.000000
2023-01-19T10:25:16.097Z,0.000000
2023-01-19T10:30:16.131Z,0.000000
2023-01-19T10:35:16.256Z,0.000000
2023-01-19T10:40:15.899Z,0.000000
2023-01-19T10:45:16.328Z,0.000000
2023-01-19T10:50:16.781Z,0.000000
2023-01-19T10:55:16.631Z,0.000000
2023-01-19T11:00:16.063Z,0.000000
2023-01-19T11:05:16.056Z,0.000000
2023-01-19T11:10:15.851Z,0.000000
2023-01-19T11:15:16.062Z,0.000000
2023-01-19T11:20:16.434Z,0.000000
2023-01-19T11:25:15.502Z,0.000000
2023-01-19T11:30:16.052Z,0.000000
2023-01-19T11:35:16.295Z,0.000000
2023-01-19T11:40:16.127Z,0.000000
2023-01-19T11:45:16.568Z,0.000000
2023-01-19T11:50:15.658Z,0.000000
2023-01-19T11:55:16.411Z,0.000000
2023-01-19T12:00:16.260Z,0.000000
2023-01-19T12:05:16.439Z,0.000000
2023-01-19T12:10:15.674Z,0.002292
2023-01-19T12:15:15.456Z,0.000000
2023-01-19T12:20:15.972Z,0.000000
2023-01-19T12:25:18.214Z,0.000000
2023-01-19T12:30:16.090Z,0.000000
2023-01-19T12:35:15.901Z,0.000000
2023-01-19T12:40:15.838Z,0.000000
2023-01-19T12:45:16.228Z,0.000000
2023-01-19T12:50:15.568Z,0.000000
2023-01-19T12:55:16.195Z,0.000000
2023-01-19T13:00:16.400Z,0.000000
2023-01-19T13:05:16.406Z,0.000000
2023-01-19T13:10:16.709Z,0.000000
2023-01-19T13:15:16.128Z,0.000000
2023-01-19T13:20:16.839Z,0.000000
2023-01-19T13:25:16.084Z,0.000000
2023-01-19T13:30:15.704Z,0.000000
2023-01-19T13:35:16.157Z,0.000000
2023-01-19T13:40:15.914Z,0.000000
2023-01-19T13:45:16.226Z,0.000000
2023-01-19T13:50:15.802Z,0.000000
2023-01-19T13:55:15.652Z,0.000000
2023-01-19T14:00:16.019Z,0.000000
2023-01-19T14:05:15.783Z,0.000000
2023-01-19T14:10:15.924Z,0.000000
2023-01-19T14:15:16.621Z,0.000000
2023-01-19T14:20:16.381Z,0.000000
2023-01-19T14:25:15.727Z,0.000000
2023-01-19T14:30:15.918Z,0.000000
2023-01-19T14:35:16.939Z,0.000000
2023-01-19T14:40:16.008Z,0.000000
2023-01-19T14:45:16.115Z,0.000000
2023-01-19T14:50:15.840Z,0.000000
2023-01-19T14:55:15.841Z,0.000000
2023-01-19T15:00:17.447Z,0.000000
2023-01-19T15:05:15.844Z,0.000000
2023-01-19T15:10:15.707Z,0.000000
2023-01-19T15:15:16.317Z,0.000000
2023-01-19T15:20:16.359Z,0.000000
2023-01-19T15:25:16.001Z,0.000000
2023-01-19T15:30:16.008Z,0.000000
2023-01-19T15:35:15.663Z,0.000000
2023-01-19T15:40:16.590Z,0.002224
2023-01-19T15:45:15.796Z,0.052401
2023-01-19T15:50:16.924Z,0.174711
2023-01-19T15:55:15.553Z,0.497862
2023-01-19T16:00:15.648Z,1.496409
2023-01-19T16:05:16.235Z,3.023799
2023-01-19T16:10:15.955Z,4.837470
2023-01-19T16:15:16.156Z,5.448084
2023-01-19T16:20:16.059Z,5.096283
2023-01-19T16:25:16.986Z,5.402251
2023-01-19T16:30:16.776Z,5.283921
2023-01-19T16:35:16.384Z,6.863684
2023-01-19T16:40:15.591Z,9.848479
2023-01-19T16:45:15.972Z,14.384350
2023-01-19T16:50:16.352Z,21.609996
2023-01-19T16:55:16.057Z,25.498264
2023-01-19T17:00:15.605Z,23.565011
2023-01-19T17:05:15.853Z,24.456674
2023-01-19T17:10:17.302Z,24.657909
2023-01-19T17:15:16.145Z,42.929243
2023-01-19T17:20:16.516Z,47.177958
2023-01-19T17:25:15.812Z,44.157188
2023-01-19T17:30:15.805Z,44.728434
2023-01-19T17:35:15.911Z,34.634470
2023-01-19T17:40:16.595Z,66.213569
2023-01-19T17:45:16.498Z,82.390442
2023-01-19T17:50:16.416Z,69.788899
2023-01-19T17:55:15.673Z,72.848363
2023-01-19T18:00:15.664Z,55.359905
2023-01-19T18:05:17.054Z,42.925061
2023-01-19T18:10:16.182Z,50.496903
2023-01-19T18:15:17.106Z,79.748581
2023-01-19T18:20:16.389Z,81.183578
2023-01-19T18:25:16.495Z,93.696347
2023-01-19T18:30:16.340Z,111.969001
2023-01-19T18:35:16.202Z,110.724154
2023-01-19T18:40:15.877Z,97.013323
2023-01-19T18:45:15.790Z,114.273574
2023-01-19T18:50:16.145Z,118.351261
2023-01-19T18:55:16.001Z,105.211468
2023-01-19T19:00:16.427Z,116.304074
2023-01-19T19:05:16.585Z,192.011219
2023-01-19T19:10:16.099Z,181.049123
2023-01-19T19:15:15.615Z,181.387700
2023-01-19T19:20:16.036Z,196.319358
2023-01-19T19:25:16.821Z,144.232716
2023-01-19T19:30:17.031Z,138.473550
2023-01-19T19:35:15.529Z,157.787261
2023-01-19T19:40:15.860Z,184.292065
2023-01-19T19:45:16.083Z,185.526086
2023-01-19T19:50:16.421Z,186.999627
2023-01-19T19:55:16.101Z,211.605634
2023-01-19T20:00:16.328Z,204.584195
2023-01-19T20:05:16.197Z,204.202904
2023-01-19T20:10:16.060Z,181.630250
2023-01-19T20:15:16.448Z,262.383183
2023-01-19T20:20:16.045Z,222.129580
2023-01-19T20:25:16.098Z,243.515027
2023-01-19T20:30:16.115Z,407.129382
2023-01-19T20:35:15.952Z,376.921857
2023-01-19T20:40:16.355Z,373.119859
2023-01-19T20:45:15.987Z,350.768296
2023-01-19T20:50:15.687Z,261.317786
2023-01-19T20:55:16.653Z,335.110329
2023-01-19T21:00:15.641Z,322.080792
2023-01-19T21:05:17.071Z,299.808705
2023-01-19T21:10:16.335Z,292.982264
2023-01-19T21:15:16.327Z,178.359528
2023-01-19T21:20:16.663Z,191.601859
2023-01-19T21:25:16.650Z,179.875455
2023-01-19T21:30:16.134Z,194.903357
2023-01-19T21:35:15.846Z,233.801978
2023-01-19T21:40:16.781Z,316.036506
2023-01-19T21:45:16.492Z,240.511500
2023-01-19T21:50:15.822Z,242.571073
2023-01-19T21:55:15.688Z,157.125783
2023-01-19T22:00:15.801Z,136.198869
2023-01-19T22:05:15.900Z,121.333535
2023-01-19T22:10:16.185Z,108.786703
2023-01-19T22:15:16.820Z,100.911495
2023-01-19T22:20:16.478Z,90.935117
2023-01-19T22:25:15.898Z,99.086798
2023-01-19T22:30:17.133Z,111.912667
2023-01-19T22:35:16.256Z,111.683311
2023-01-19T22:40:16.335Z,103.873998
2023-01-19T22:45:16.403Z,104.988994
2023-01-19T22:50:16.159Z,119.762576
2023-01-19T22:55:16.138Z,122.293090
2023-01-19T23:00:15.771Z,65.642628
2023-01-19T23:05:16.515Z,63.724087
2023-01-19T23:10:15.986Z,85.689563
2023-01-19T23:15:16.064Z,60.109446
2023-01-19T23:20:15.987Z,60.067597
2023-01-19T23:25:16.240Z,50.602741
2023-01-19T23:30:15.920Z,54.065800
2023-01-19T23:35:15.859Z,53.984873
2023-01-19T23:40:15.945Z,46.787367
2023-01-19T23:45:16.191Z,36.596255
2023-01-19T23:50:15.876Z,32.358180
2023-01-19T23:55:16.339Z,31.967014
